Time;durP1;ratioP1;P1;durP2;ratioP2;P2;SDS_P1;SDS_P2;PMS_P1;PMS_P2;Temp;Humidity;BMP_temperature;BMP_pressure;BME280_temperature;BME280_humidity;BME280_pressure;Samples;Min_cycle;Max_cycle;Signal;HPM_P1;HPM_P2
2023/04/08 00:01:06;;;;;;;12.05;7.55;;;4.50;99.90;;;;;;5086389;28;20054;-84
2023/04/08 00:03:32;;;;;;;8.90;7.45;;;4.40;99.90;;;;;;5052181;28;20044;-84
2023/04/08 00:05:59;;;;;;;13.48;8.18;;;4.40;99.90;;;;;;5068185;28;20056;-83
2023/04/08 00:08:25;;;;;;;9.45;8.02;;;4.30;99.90;;;;;;5086107;28;20123;-83
2023/04/08 00:10:50;;;;;;;10.90;8.00;;;4.40;99.90;;;;;;5083577;28;20135;-83
2023/04/08 00:13:16;;;;;;;10.38;6.97;;;4.30;99.90;;;;;;5086736;28;20044;-83
2023/04/08 00:15:41;;;;;;;10.43;8.10;;;4.30;99.90;;;;;;5087290;28;20036;-83
2023/04/08 00:18:07;;;;;;;11.60;7.53;;;4.30;99.90;;;;;;5087040;28;20082;-83
2023/04/08 00:20:33;;;;;;;9.27;7.70;;;4.20;99.90;;;;;;5069031;28;20401;-82
2023/04/08 00:22:58;;;;;;;10.63;8.02;;;4.20;99.90;;;;;;5066550;28;20128;-83
2023/04/08 00:25:24;;;;;;;10.00;8.25;;;4.20;99.90;;;;;;5087028;28;20138;-83
2023/04/08 00:27:50;;;;;;;9.80;7.45;;;4.10;99.90;;;;;;5068956;28;20040;-83
2023/04/08 00:30:15;;;;;;;10.43;7.38;;;4.10;99.90;;;;;;5063662;28;20136;-83
2023/04/08 00:32:41;;;;;;;8.85;7.57;;;4.10;99.90;;;;;;5050935;28;20047;-83
2023/04/08 00:35:07;;;;;;;8.70;7.28;;;4.10;99.90;;;;;;5068038;28;20047;-83
2023/04/08 00:37:33;;;;;;;10.55;7.80;;;4.10;99.90;;;;;;5056629;28;20044;-83
2023/04/08 00:39:59;;;;;;;11.20;7.28;;;4.00;99.90;;;;;;5067438;28;20536;-83
2023/04/08 00:42:25;;;;;;;8.65;6.80;;;4.00;99.90;;;;;;5066907;28;20079;-83
2023/04/08 00:44:51;;;;;;;10.73;7.60;;;4.00;99.90;;;;;;5066741;28;20052;-83
2023/04/08 00:47:16;;;;;;;10.70;7.95;;;4.00;99.90;;;;;;5068325;28;20052;-83
2023/04/08 00:49:43;;;;;;;11.23;7.95;;;4.00;99.90;;;;;;5056212;28;20052;-83
2023/04/08 00:52:12;;;;;;;9.45;7.80;;;3.90;99.90;;;;;;5073684;28;20485;-84
2023/04/08 00:54:38;;;;;;;12.82;8.30;;;3.90;99.90;;;;;;5071521;28;20056;-83
2023/04/08 00:57:07;;;;;;;10.48;7.63;;;3.90;99.90;;;;;;5072207;28;20051;-83
2023/04/08 00:59:34;;;;;;;13.02;8.25;;;3.90;99.90;;;;;;5072867;28;20048;-83
2023/04/08 01:02:17;;;;;;;12.23;8.30;;;3.90;99.90;;;;;;5052962;28;20167;-83
2023/04/08 01:05:06;;;;;;;11.38;7.85;;;3.80;99.90;;;;;;5071213;28;20416;-83
2023/04/08 01:07:36;;;;;;;10.73;8.23;;;3.80;99.90;;;;;;5070059;28;20052;-83
2023/04/08 01:10:07;;;;;;;10.05;7.57;;;3.80;99.90;;;;;;5071623;28;20044;-83
2023/04/08 01:12:39;;;;;;;11.70;8.52;;;3.80;99.90;;;;;;5069874;28;20052;-83
2023/04/08 01:15:07;;;;;;;11.60;8.27;;;3.80;99.90;;;;;;5088433;28;20048;-83
2023/04/08 01:17:35;;;;;;;11.18;7.70;;;3.70;99.90;;;;;;5070422;28;20508;-84
2023/04/08 01:20:03;;;;;;;11.23;7.78;;;3.70;99.90;;;;;;5071683;28;20863;-83
2023/04/08 01:23:00;;;;;;;11.85;7.95;;;3.70;99.90;;;;;;5052215;28;20411;-83
2023/04/08 01:25:33;;;;;;;10.13;7.55;;;3.60;99.90;;;;;;5086522;28;20050;-83
2023/04/08 01:28:02;;;;;;;11.00;8.50;;;3.60;99.90;;;;;;5071208;28;20055;-83
2023/04/08 01:30:29;;;;;;;10.75;8.05;;;3.50;99.90;;;;;;5072194;28;20061;-83
2023/04/08 01:32:56;;;;;;;10.45;7.47;;;3.50;99.90;;;;;;5055103;28;20140;-83
2023/04/08 01:35:22;;;;;;;11.90;8.43;;;3.50;99.90;;;;;;5072401;28;20049;-83
2023/04/08 01:37:50;;;;;;;11.73;8.77;;;3.40;99.90;;;;;;5066960;28;20055;-84
2023/04/08 01:40:17;;;;;;;13.45;9.18;;;3.50;99.90;;;;;;5072038;28;20069;-83
2023/04/08 01:42:45;;;;;;;12.02;8.90;;;3.50;99.90;;;;;;5069467;28;20099;-83
2023/04/08 01:45:12;;;;;;;11.70;7.93;;;3.40;99.90;;;;;;5070745;28;20498;-83
2023/04/08 01:47:39;;;;;;;13.48;8.95;;;3.40;99.90;;;;;;5069844;28;20405;-82
2023/04/08 01:50:06;;;;;;;11.40;8.43;;;3.30;99.90;;;;;;5071025;28;20055;-82
2023/04/08 01:52:34;;;;;;;11.80;8.95;;;3.30;99.90;;;;;;5060554;28;20445;-82
2023/04/08 01:55:00;;;;;;;14.90;8.43;;;3.30;99.90;;;;;;5052172;28;20046;-82
2023/04/08 01:57:29;;;;;;;13.55;9.23;;;3.30;99.90;;;;;;5059879;28;20047;-83
2023/04/08 01:59:59;;;;;;;14.55;10.07;;;3.30;99.90;;;;;;5066852;28;20131;-81
2023/04/08 02:02:26;;;;;;;12.07;9.20;;;3.20;99.90;;;;;;5054547;28;20135;-82
2023/04/08 02:04:53;;;;;;;12.98;9.45;;;3.20;99.90;;;;;;5071722;28;20039;-82
2023/04/08 02:07:19;;;;;;;13.40;8.90;;;3.20;99.90;;;;;;5069339;28;20044;-83
2023/04/08 02:09:45;;;;;;;12.68;8.82;;;3.10;99.90;;;;;;5088690;28;20445;-82
2023/04/08 02:12:11;;;;;;;15.63;10.02;;;3.10;99.90;;;;;;5071035;28;20051;-82
2023/04/08 02:14:37;;;;;;;14.25;9.90;;;3.10;99.90;;;;;;5071773;28;20116;-82
2023/04/08 02:17:12;;;;;;;14.65;9.77;;;3.10;99.90;;;;;;5088582;28;20602;-83
2023/04/08 02:19:46;;;;;;;16.70;10.70;;;3.10;99.90;;;;;;5070185;28;20373;-82
2023/04/08 02:22:23;;;;;;;15.60;10.80;;;3.20;99.90;;;;;;5069655;28;20036;-83
2023/04/08 02:24:49;;;;;;;14.73;9.98;;;3.00;99.90;;;;;;5070773;28;20080;-83
2023/04/08 02:27:17;;;;;;;15.57;10.40;;;3.00;99.90;;;;;;5070892;28;20044;-83
2023/04/08 02:29:44;;;;;;;12.40;9.18;;;3.00;99.90;;;;;;5070182;28;20051;-83
2023/04/08 02:32:11;;;;;;;16.10;10.85;;;3.00;99.90;;;;;;5070502;28;20414;-83
2023/04/08 02:34:39;;;;;;;15.30;10.32;;;3.00;99.90;;;;;;5071839;28;20044;-83
2023/04/08 02:37:07;;;;;;;14.45;11.18;;;2.90;99.90;;;;;;5086791;28;20052;-83
2023/04/08 02:39:33;;;;;;;16.80;10.75;;;2.90;99.90;;;;;;5066806;28;20099;-82
2023/04/08 02:41:59;;;;;;;16.13;10.85;;;2.90;99.90;;;;;;5071497;28;20362;-83
2023/04/08 02:44:25;;;;;;;14.77;10.57;;;2.80;99.90;;;;;;5069258;28;20043;-82
2023/04/08 02:46:50;;;;;;;14.63;10.65;;;2.80;99.90;;;;;;5070323;28;20055;-82
2023/04/08 02:49:16;;;;;;;13.85;11.32;;;2.80;99.90;;;;;;5067310;28;20032;-82
2023/04/08 02:51:41;;;;;;;15.68;11.23;;;2.70;99.90;;;;;;5053639;28;20032;-82
2023/04/08 02:54:07;;;;;;;18.48;11.48;;;2.70;99.90;;;;;;5074270;28;20053;-83
2023/04/08 02:56:32;;;;;;;16.50;11.02;;;2.70;99.90;;;;;;5053533;28;20118;-82
2023/04/08 02:58:58;;;;;;;16.23;10.73;;;2.70;99.90;;;;;;5069775;28;20050;-82
2023/04/08 03:01:24;;;;;;;18.38;11.75;;;2.70;99.90;;;;;;5070141;28;20048;-83
2023/04/08 03:03:49;;;;;;;18.35;11.52;;;2.70;99.90;;;;;;5067953;28;20055;-82
2023/04/08 03:06:15;;;;;;;16.45;11.55;;;2.70;99.90;;;;;;5068500;28;20036;-82
2023/04/08 03:08:41;;;;;;;17.77;12.32;;;2.60;99.90;;;;;;5072533;28;20107;-83
2023/04/08 03:11:07;;;;;;;20.48;12.82;;;2.60;99.90;;;;;;5068709;28;20117;-83
2023/04/08 03:13:33;;;;;;;16.83;11.30;;;2.60;99.90;;;;;;5068197;28;20044;-83
2023/04/08 03:15:58;;;;;;;18.45;13.00;;;2.60;99.90;;;;;;5051860;28;20105;-82
2023/04/08 03:18:24;;;;;;;18.50;10.85;;;2.60;99.90;;;;;;5086759;28;20051;-82
2023/04/08 03:20:50;;;;;;;19.67;12.52;;;2.60;99.90;;;;;;5052825;28;20047;-83
2023/04/08 03:23:16;;;;;;;21.38;12.77;;;2.50;99.90;;;;;;5067846;28;20048;-83
2023/04/08 03:25:41;;;;;;;17.27;12.10;;;2.50;99.90;;;;;;5068930;28;20044;-83
2023/04/08 03:28:07;;;;;;;18.33;12.30;;;2.50;99.90;;;;;;5068174;28;20219;-83
2023/04/08 03:30:32;;;;;;;17.35;12.45;;;2.50;99.90;;;;;;5088287;28;20055;-83
2023/04/08 03:32:58;;;;;;;22.10;13.38;;;2.50;99.90;;;;;;5087460;28;20091;-84
2023/04/08 03:35:24;;;;;;;17.40;12.20;;;2.60;99.90;;;;;;5086429;28;20042;-84
2023/04/08 03:37:50;;;;;;;19.83;12.70;;;2.50;99.90;;;;;;5068105;28;20055;-84
2023/04/08 03:40:15;;;;;;;21.73;13.05;;;2.50;99.90;;;;;;5087345;28;20517;-84
2023/04/08 03:42:41;;;;;;;17.98;12.27;;;2.50;99.90;;;;;;5068386;28;20110;-84
2023/04/08 03:45:07;;;;;;;20.45;13.43;;;2.50;99.90;;;;;;5059627;28;20868;-83
2023/04/08 03:47:33;;;;;;;20.20;13.50;;;2.50;99.90;;;;;;5068341;28;20466;-83
2023/04/08 03:49:58;;;;;;;19.60;13.00;;;2.50;99.90;;;;;;5068180;28;20040;-83
2023/04/08 03:52:24;;;;;;;21.75;13.02;;;2.50;99.90;;;;;;5052906;28;20394;-83
2023/04/08 03:54:49;;;;;;;24.17;13.55;;;2.50;99.90;;;;;;5051725;28;20455;-83
2023/04/08 03:57:15;;;;;;;20.90;13.00;;;2.40;99.90;;;;;;5069908;28;20119;-83
2023/04/08 03:59:41;;;;;;;21.92;13.00;;;2.40;99.90;;;;;;5086101;28;20043;-83
2023/04/08 04:02:06;;;;;;;20.77;12.95;;;2.40;99.90;;;;;;5068425;28;20043;-83
2023/04/08 04:04:33;;;;;;;21.58;12.85;;;2.30;99.90;;;;;;5067887;28;20052;-83
2023/04/08 04:06:58;;;;;;;20.58;13.60;;;2.30;99.90;;;;;;5069942;28;20526;-83
2023/04/08 04:09:24;;;;;;;20.50;12.07;;;2.30;99.90;;;;;;5083139;28;20040;-83
2023/04/08 04:11:49;;;;;;;21.58;13.20;;;2.30;99.90;;;;;;5063428;28;20123;-82
2023/04/08 04:14:16;;;;;;;21.27;13.57;;;2.30;99.90;;;;;;5067682;28;20056;-83
2023/04/08 04:16:42;;;;;;;19.90;13.13;;;2.30;99.90;;;;;;5086250;28;20518;-82
2023/04/08 04:19:07;;;;;;;21.85;13.80;;;2.30;99.90;;;;;;5064620;28;20084;-82
2023/04/08 04:21:33;;;;;;;27.08;14.68;;;2.30;99.90;;;;;;5049375;28;20088;-83
2023/04/08 04:23:58;;;;;;;22.98;14.00;;;2.30;99.90;;;;;;5060198;28;20040;-83
2023/04/08 04:26:24;;;;;;;23.05;13.38;;;2.30;99.90;;;;;;5073690;28;20066;-82
2023/04/08 04:28:50;;;;;;;24.42;13.98;;;2.30;99.90;;;;;;5072609;28;20055;-83
2023/04/08 04:31:25;;;;;;;23.92;14.02;;;2.30;99.90;;;;;;5073073;28;20458;-82
2023/04/08 04:33:50;;;;;;;22.63;14.05;;;2.30;99.90;;;;;;5055756;28;20044;-83
2023/04/08 04:36:16;;;;;;;24.70;15.07;;;2.30;99.90;;;;;;5091778;28;20498;-83
2023/04/08 04:38:42;;;;;;;24.67;14.88;;;2.40;99.90;;;;;;5067285;28;20051;-83
2023/04/08 04:41:08;;;;;;;23.92;13.73;;;2.40;99.90;;;;;;5065848;28;20405;-83
2023/04/08 04:43:33;;;;;;;23.13;14.23;;;2.40;99.90;;;;;;5035603;28;20029;-83
2023/04/08 04:45:59;;;;;;;24.63;15.20;;;2.40;99.90;;;;;;5063439;28;20040;-83
2023/04/08 04:48:25;;;;;;;24.27;14.13;;;2.40;99.90;;;;;;5068372;28;20043;-83
2023/04/08 04:50:58;;;;;;;24.20;14.63;;;2.50;99.90;;;;;;5068656;28;20041;-83
2023/04/08 04:53:24;;;;;;;28.27;14.43;;;2.50;99.90;;;;;;5067680;28;20056;-83
2023/04/08 04:55:50;;;;;;;27.80;15.52;;;2.50;99.90;;;;;;5069514;28;20076;-83
2023/04/08 04:58:17;;;;;;;28.65;15.27;;;2.50;99.90;;;;;;5067385;28;20045;-82
2023/04/08 05:00:42;;;;;;;24.63;14.60;;;2.50;99.90;;;;;;5067748;28;20044;-83
2023/04/08 05:03:08;;;;;;;23.48;15.00;;;2.50;99.90;;;;;;5068394;28;20380;-83
2023/04/08 05:05:33;;;;;;;26.40;14.80;;;2.50;99.90;;;;;;5066170;28;20201;-83
2023/04/08 05:07:59;;;;;;;25.70;14.77;;;2.50;99.90;;;;;;5067589;28;20044;-83
2023/04/08 05:10:25;;;;;;;23.90;14.07;;;2.60;99.90;;;;;;5068093;28;20690;-83
2023/04/08 05:12:51;;;;;;;25.30;14.52;;;2.60;99.90;;;;;;5067845;28;20056;-82
2023/04/08 05:15:16;;;;;;;26.00;14.43;;;2.60;99.90;;;;;;5042182;28;20048;-82
2023/04/08 05:17:42;;;;;;;21.92;13.65;;;2.60;99.90;;;;;;5058370;28;20649;-82
2023/04/08 05:20:07;;;;;;;24.02;14.65;;;2.60;99.90;;;;;;5066469;28;20075;-82
2023/04/08 05:22:33;;;;;;;25.42;14.73;;;2.60;99.90;;;;;;5065420;28;20052;-83
2023/04/08 05:24:59;;;;;;;24.33;14.30;;;2.70;99.90;;;;;;5065673;28;20102;-82
2023/04/08 05:27:25;;;;;;;24.42;14.93;;;2.80;99.90;;;;;;5067609;28;20399;-83
2023/04/08 05:29:50;;;;;;;25.67;14.85;;;2.90;99.90;;;;;;5069289;28;20059;-83
2023/04/08 05:32:16;;;;;;;27.08;14.75;;;3.00;99.90;;;;;;5061883;28;20164;-83
2023/04/08 05:34:42;;;;;;;27.08;15.63;;;3.10;99.90;;;;;;5048066;28;20044;-83
2023/04/08 05:37:07;;;;;;;27.23;14.68;;;3.10;99.90;;;;;;5079920;28;20049;-84
2023/04/08 05:39:33;;;;;;;26.50;15.07;;;3.20;99.90;;;;;;5062602;28;20032;-83
2023/04/08 05:41:58;;;;;;;25.83;15.65;;;3.40;99.90;;;;;;5067009;28;20045;-83
2023/04/08 05:44:24;;;;;;;27.85;15.60;;;3.50;99.90;;;;;;5069806;28;20561;-84
2023/04/08 05:46:50;;;;;;;28.13;16.27;;;3.60;99.90;;;;;;5070496;28;20032;-84
2023/04/08 05:49:16;;;;;;;27.02;16.27;;;3.70;99.90;;;;;;5069989;28;20041;-83
2023/04/08 05:51:42;;;;;;;27.27;16.27;;;3.90;99.90;;;;;;5064451;28;20140;-84
2023/04/08 05:54:07;;;;;;;24.98;14.80;;;4.20;99.90;;;;;;5048611;28;20131;-83
2023/04/08 05:56:33;;;;;;;27.45;16.20;;;4.00;99.90;;;;;;5068252;28;20265;-83
2023/04/08 05:58:59;;;;;;;26.67;15.23;;;4.10;99.90;;;;;;5068839;28;20047;-82
2023/04/08 06:01:25;;;;;;;26.27;15.77;;;4.10;99.90;;;;;;5069713;28;20076;-83
2023/04/08 06:03:57;;;;;;;24.80;15.05;;;4.10;99.90;;;;;;5066873;28;20513;-84
2023/04/08 06:06:24;;;;;;;27.30;16.43;;;4.10;99.90;;;;;;5068913;28;20072;-83
2023/04/08 06:08:50;;;;;;;26.45;16.20;;;4.20;99.90;;;;;;5069621;28;20287;-83
2023/04/08 06:11:16;;;;;;;23.42;14.55;;;4.20;99.90;;;;;;5051725;28;20048;-83
2023/04/08 06:13:41;;;;;;;25.35;15.27;;;4.30;99.90;;;;;;5067881;28;20044;-83
2023/04/08 06:16:16;;;;;;;26.55;15.85;;;4.40;99.90;;;;;;5069768;28;20076;-83
2023/04/08 06:18:42;;;;;;;26.27;16.05;;;4.50;99.90;;;;;;5067418;28;20048;-83
2023/04/08 06:21:08;;;;;;;25.73;16.38;;;4.60;99.90;;;;;;5065841;28;20095;-84
2023/04/08 06:23:34;;;;;;;25.83;15.32;;;4.60;99.90;;;;;;5063806;28;20452;-84
2023/04/08 06:25:59;;;;;;;25.75;15.52;;;4.70;99.90;;;;;;5067402;28;20083;-85
2023/04/08 06:28:25;;;;;;;25.35;16.23;;;4.80;99.90;;;;;;5067900;28;20048;-83
2023/04/08 06:30:50;;;;;;;26.33;15.73;;;5.10;99.90;;;;;;5066516;28;20489;-81
2023/04/08 06:33:16;;;;;;;24.98;16.38;;;4.90;99.90;;;;;;5066156;28;20047;-82
2023/04/08 06:35:42;;;;;;;27.05;16.55;;;5.00;99.90;;;;;;5066949;28;20052;-83
2023/04/08 06:38:07;;;;;;;27.00;16.65;;;5.10;99.90;;;;;;5067022;28;20108;-83
2023/04/08 06:40:33;;;;;;;25.83;16.33;;;5.20;99.90;;;;;;5049431;28;20122;-83
2023/04/08 06:42:58;;;;;;;26.13;16.00;;;5.30;99.90;;;;;;5067616;28;20044;-83
2023/04/08 06:45:24;;;;;;;26.55;16.90;;;5.30;99.90;;;;;;5067294;28;20154;-83
2023/04/08 06:47:50;;;;;;;27.05;16.42;;;5.40;99.90;;;;;;5068108;28;20143;-82
2023/04/08 06:50:16;;;;;;;24.55;15.65;;;5.40;99.90;;;;;;5068074;28;20151;-83
2023/04/08 06:52:41;;;;;;;24.63;16.30;;;5.50;99.90;;;;;;5067318;28;20467;-83
2023/04/08 06:55:07;;;;;;;24.02;15.88;;;5.60;99.90;;;;;;5064738;28;20059;-83
2023/04/08 06:57:33;;;;;;;23.92;15.48;;;5.80;99.90;;;;;;5066630;28;20469;-83
2023/04/08 06:59:59;;;;;;;24.02;15.88;;;5.90;99.90;;;;;;5068023;28;20045;-83
2023/04/08 07:02:25;;;;;;;23.45;15.45;;;6.00;99.90;;;;;;5067279;28;20498;-84
2023/04/08 07:04:50;;;;;;;24.35;16.02;;;6.20;99.90;;;;;;5067005;28;20052;-83
2023/04/08 07:07:16;;;;;;;24.35;14.40;;;6.40;99.90;;;;;;5068301;28;20064;-83
2023/04/08 07:09:44;;;;;;;23.63;15.02;;;6.50;99.90;;;;;;5049950;28;20052;-83
2023/04/08 07:12:10;;;;;;;20.13;13.88;;;6.60;99.90;;;;;;5065561;28;20124;-83
2023/04/08 07:14:36;;;;;;;21.23;14.02;;;6.70;99.90;;;;;;5068411;28;20224;-83
2023/04/08 07:17:01;;;;;;;19.92;13.90;;;6.70;99.90;;;;;;5067025;28;20044;-83
2023/04/08 07:19:27;;;;;;;19.60;13.75;;;6.70;99.90;;;;;;5066379;28;20170;-84
2023/04/08 07:21:53;;;;;;;19.50;13.73;;;6.70;99.90;;;;;;5067397;28;20044;-82
2023/04/08 07:24:18;;;;;;;18.38;13.15;;;6.80;99.90;;;;;;5067723;28;20105;-82
2023/04/08 07:26:44;;;;;;;19.42;13.70;;;6.90;99.90;;;;;;5067657;28;20177;-82
2023/04/08 07:29:10;;;;;;;17.20;12.65;;;7.10;99.90;;;;;;5050438;28;20146;-84
2023/04/08 07:31:35;;;;;;;17.77;13.32;;;7.10;99.90;;;;;;5067565;28;20128;-84
2023/04/08 07:34:01;;;;;;;17.90;12.50;;;7.20;99.90;;;;;;5067702;28;20036;-84
2023/04/08 07:36:27;;;;;;;21.08;13.85;;;7.30;99.90;;;;;;5068428;28;20036;-82
2023/04/08 07:38:53;;;;;;;19.58;13.82;;;7.30;99.90;;;;;;5048957;28;20052;-82
2023/04/08 07:41:18;;;;;;;18.67;13.48;;;7.40;99.90;;;;;;5066748;28;20055;-82
2023/04/08 07:43:44;;;;;;;18.02;13.45;;;7.50;99.90;;;;;;5066793;28;20425;-82
2023/04/08 07:46:10;;;;;;;17.83;13.20;;;7.50;99.90;;;;;;5067435;28;20122;-84
2023/04/08 07:48:36;;;;;;;18.60;12.57;;;7.70;99.90;;;;;;5066946;28;20438;-84
2023/04/08 07:51:04;;;;;;;17.38;12.80;;;7.80;99.90;;;;;;5064463;28;20427;-86
2023/04/08 07:53:29;;;;;;;17.48;12.55;;;7.80;99.90;;;;;;5066375;28;20052;-84
2023/04/08 07:55:55;;;;;;;17.92;13.25;;;7.70;99.90;;;;;;5066837;28;20045;-82
2023/04/08 07:58:21;;;;;;;18.70;12.30;;;7.80;99.90;;;;;;5064520;28;20044;-84
2023/04/08 08:00:46;;;;;;;25.95;12.85;;;7.90;99.90;;;;;;5066337;28;20052;-83
2023/04/08 08:03:12;;;;;;;18.63;13.02;;;8.00;99.90;;;;;;5064371;28;20124;-83
2023/04/08 08:05:37;;;;;;;18.38;13.00;;;8.10;99.90;;;;;;5064330;28;20060;-83
2023/04/08 08:08:03;;;;;;;18.58;12.23;;;8.00;99.90;;;;;;5064617;28;20075;-83
2023/04/08 08:10:29;;;;;;;15.32;11.45;;;8.10;99.90;;;;;;5063700;28;20660;-83
2023/04/08 08:12:55;;;;;;;15.05;11.93;;;8.10;99.90;;;;;;5048016;28;20036;-83
2023/04/08 08:15:20;;;;;;;16.48;12.15;;;8.10;99.90;;;;;;5065296;28;20079;-83
2023/04/08 08:17:46;;;;;;;16.75;11.75;;;8.20;99.90;;;;;;5060830;28;20060;-84
2023/04/08 08:20:11;;;;;;;14.95;11.55;;;8.30;99.90;;;;;;5058109;28;20055;-84
2023/04/08 08:22:40;;;;;;;15.63;11.75;;;8.30;99.90;;;;;;5063811;28;20124;-84
2023/04/08 08:25:06;;;;;;;15.80;11.75;;;8.40;99.90;;;;;;5064399;28;20094;-83
2023/04/08 08:27:33;;;;;;;16.35;11.18;;;8.50;99.90;;;;;;5065260;28;20063;-83
2023/04/08 08:29:59;;;;;;;15.38;11.63;;;8.60;99.90;;;;;;5066575;28;20087;-80
2023/04/08 08:32:24;;;;;;;15.77;12.00;;;8.70;99.90;;;;;;5065648;28;20509;-82
2023/04/08 08:34:50;;;;;;;17.38;11.82;;;8.70;99.90;;;;;;5066244;28;20056;-82
2023/04/08 08:37:16;;;;;;;15.40;12.05;;;8.80;99.90;;;;;;5065612;28;20052;-83
2023/04/08 08:39:41;;;;;;;15.70;12.52;;;8.90;99.90;;;;;;5064068;28;20059;-82
2023/04/08 08:42:18;;;;;;;16.63;12.10;;;9.00;99.90;;;;;;5065714;28;20040;-82
2023/04/08 08:44:43;;;;;;;17.20;12.02;;;9.00;99.90;;;;;;5065534;28;20048;-83
2023/04/08 08:47:09;;;;;;;16.17;11.63;;;9.10;99.90;;;;;;5067331;28;20495;-83
2023/04/08 08:49:34;;;;;;;14.18;11.05;;;9.10;99.90;;;;;;5064458;28;20074;-82
2023/04/08 08:52:00;;;;;;;14.18;11.15;;;9.20;99.90;;;;;;5076477;28;20036;-82
2023/04/08 08:54:26;;;;;;;16.17;11.57;;;9.20;99.90;;;;;;5075744;28;20159;-82
2023/04/08 08:56:51;;;;;;;16.02;11.65;;;9.30;99.90;;;;;;5064389;28;20043;-81
2023/04/08 08:59:17;;;;;;;14.77;11.77;;;9.40;99.90;;;;;;5065688;28;20186;-81
2023/04/08 09:01:43;;;;;;;14.00;11.07;;;9.50;99.90;;;;;;5066156;28;20620;-82
2023/04/08 09:04:18;;;;;;;14.10;11.38;;;9.50;99.90;;;;;;5066266;28;20056;-82
2023/04/08 09:06:49;;;;;;;13.52;10.57;;;9.60;99.90;;;;;;5049325;28;20087;-83
2023/04/08 09:09:16;;;;;;;13.73;11.30;;;9.70;99.90;;;;;;5067503;28;20052;-82
2023/04/08 09:11:44;;;;;;;15.52;10.65;;;9.70;99.90;;;;;;5068150;28;20332;-81
2023/04/08 09:14:36;;;;;;;13.55;10.95;;;10.40;99.90;;;;;;5069879;28;20097;-82
2023/04/08 09:17:02;;;;;;;15.60;10.67;;;9.90;99.90;;;;;;5065533;28;20048;-81
2023/04/08 09:19:27;;;;;;;12.30;10.00;;;10.00;99.90;;;;;;5068045;28;20295;-82
2023/04/08 09:22:10;;;;;;;13.32;10.35;;;9.90;99.90;;;;;;5069548;28;20097;-80
2023/04/08 09:24:36;;;;;;;12.43;10.20;;;9.90;99.90;;;;;;5070071;28;20044;-80
2023/04/08 09:27:05;;;;;;;15.05;11.23;;;9.90;99.90;;;;;;5069134;28;20076;-80
2023/04/08 09:29:32;;;;;;;12.75;10.50;;;10.00;99.90;;;;;;5068713;28;20055;-80
2023/04/08 09:32:00;;;;;;;15.32;11.63;;;10.00;99.90;;;;;;5069541;28;20040;-80
2023/04/08 09:34:28;;;;;;;14.73;11.10;;;10.00;99.90;;;;;;5069090;28;20502;-80
2023/04/08 09:36:55;;;;;;;15.10;10.82;;;10.10;99.90;;;;;;5073156;28;20056;-81
2023/04/08 09:39:21;;;;;;;12.18;10.07;;;10.10;99.90;;;;;;5089573;28;20084;-81
2023/04/08 09:41:50;;;;;;;11.63;10.38;;;10.30;99.90;;;;;;5072212;28;20102;-81
2023/04/08 09:44:18;;;;;;;13.90;11.10;;;10.20;99.90;;;;;;5071790;28;20044;-81
2023/04/08 09:46:54;;;;;;;15.57;11.25;;;10.10;99.90;;;;;;5088737;28;20747;-81
2023/04/08 09:49:37;;;;;;;14.75;11.50;;;10.20;99.90;;;;;;5072146;28;20401;-80
2023/04/08 09:52:09;;;;;;;14.13;10.93;;;10.30;99.90;;;;;;5090706;28;20050;-80
2023/04/08 09:55:05;;;;;;;14.15;12.15;;;10.50;99.90;;;;;;5088249;28;20127;-81
2023/04/08 09:57:43;;;;;;;16.15;11.65;;;10.70;99.90;;;;;;5089664;28;20040;-81
2023/04/08 10:00:13;;;;;;;13.85;11.23;;;10.90;99.90;;;;;;5088839;28;20502;-80
2023/04/08 10:03:10;;;;;;;12.43;10.52;;;11.10;99.90;;;;;;5070173;28;20044;-80
2023/04/08 10:05:39;;;;;;;13.05;11.02;;;11.30;99.90;;;;;;5070434;28;20450;-81
2023/04/08 10:08:06;;;;;;;11.70;9.95;;;11.40;99.90;;;;;;5068332;28;20409;-81
2023/04/08 10:10:35;;;;;;;13.10;10.50;;;11.20;99.90;;;;;;5087473;28;20489;-81
2023/04/08 10:13:02;;;;;;;14.27;11.30;;;11.00;99.90;;;;;;5069712;28;20040;-82
2023/04/08 10:15:29;;;;;;;13.60;11.30;;;11.00;99.90;;;;;;5071241;28;20051;-84
2023/04/08 10:18:19;;;;;;;15.30;11.50;;;11.10;99.90;;;;;;5071807;28;20074;-81
2023/04/08 10:20:46;;;;;;;14.38;11.77;;;11.20;99.90;;;;;;5048735;28;20419;-83
2023/04/08 10:23:13;;;;;;;14.40;11.88;;;11.40;99.90;;;;;;5069708;28;20119;-82
2023/04/08 10:25:40;;;;;;;12.80;11.30;;;11.50;99.90;;;;;;5071172;28;20048;-84
2023/04/08 10:28:18;;;;;;;14.00;11.10;;;11.50;99.90;;;;;;5053689;28;20048;-83
2023/04/08 10:30:45;;;;;;;13.35;11.68;;;11.30;99.90;;;;;;5071097;28;20518;-82
2023/04/08 10:33:20;;;;;;;12.63;10.45;;;11.20;99.90;;;;;;5062681;28;20047;-80
2023/04/08 10:35:53;;;;;;;12.32;10.63;;;11.10;99.90;;;;;;5051628;28;20048;-81
2023/04/08 10:38:19;;;;;;;12.48;10.55;;;11.00;99.90;;;;;;5051068;28;20430;-82
2023/04/08 10:40:47;;;;;;;12.73;10.15;;;10.90;99.90;;;;;;5069010;28;20055;-82
2023/04/08 10:43:14;;;;;;;12.43;10.60;;;11.00;99.90;;;;;;5050865;28;20053;-81
2023/04/08 10:45:41;;;;;;;12.70;10.98;;;11.00;99.90;;;;;;5051238;28;20044;-82
2023/04/08 10:48:19;;;;;;;12.48;10.10;;;11.10;99.90;;;;;;5060948;28;20076;-82
2023/04/08 10:50:59;;;;;;;11.65;10.35;;;11.20;99.90;;;;;;5071136;28;20040;-83
2023/04/08 10:53:35;;;;;;;11.02;9.18;;;11.30;99.90;;;;;;5078743;28;20524;-82
2023/04/08 10:56:13;;;;;;;10.88;9.27;;;11.20;99.90;;;;;;5070717;28;20138;-83
2023/04/08 10:58:51;;;;;;;11.20;9.18;;;11.10;99.90;;;;;;5054355;28;20217;-81
2023/04/08 11:01:17;;;;;;;12.07;9.43;;;11.00;99.90;;;;;;5069188;28;20127;-81
2023/04/08 11:03:43;;;;;;;11.02;9.35;;;11.10;99.90;;;;;;5069993;28;20087;-81
2023/04/08 11:06:08;;;;;;;11.90;9.52;;;11.30;99.90;;;;;;5088691;28;20071;-81
2023/04/08 11:08:35;;;;;;;11.60;9.80;;;11.30;99.90;;;;;;5088640;28;20355;-82
2023/04/08 11:11:02;;;;;;;10.65;8.95;;;11.00;99.90;;;;;;5088673;28;20036;-82
2023/04/08 11:13:29;;;;;;;13.73;9.25;;;11.10;99.90;;;;;;5088681;28;20051;-83
2023/04/08 11:15:57;;;;;;;13.10;8.73;;;11.20;99.90;;;;;;5053365;28;20036;-82
2023/04/08 11:18:23;;;;;;;12.45;9.27;;;11.30;99.90;;;;;;5070170;28;20044;-82
2023/04/08 11:20:52;;;;;;;10.68;8.60;;;11.40;99.90;;;;;;5068728;28;20059;-81
2023/04/08 11:23:19;;;;;;;10.75;9.32;;;11.30;99.90;;;;;;5084249;28;20490;-82
2023/04/08 11:25:46;;;;;;;11.43;9.23;;;11.20;99.90;;;;;;5070355;28;20127;-82
2023/04/08 11:28:13;;;;;;;10.45;8.88;;;11.00;99.90;;;;;;5070855;28;20047;-82
2023/04/08 11:30:42;;;;;;;11.50;9.00;;;11.00;99.90;;;;;;5070806;28;20043;-82
2023/04/08 11:33:09;;;;;;;11.13;8.95;;;11.10;99.90;;;;;;5088474;28;20374;-82
2023/04/08 11:35:38;;;;;;;10.45;8.95;;;11.10;99.90;;;;;;5053293;28;20055;-82
2023/04/08 11:38:04;;;;;;;10.05;8.15;;;11.10;99.90;;;;;;5069801;28;20083;-82
2023/04/08 11:40:30;;;;;;;11.32;8.98;;;11.20;99.90;;;;;;5053321;28;20062;-82
2023/04/08 11:42:55;;;;;;;12.25;8.95;;;11.30;99.90;;;;;;5070033;28;20040;-82
2023/04/08 11:45:21;;;;;;;10.88;8.95;;;11.30;99.90;;;;;;5069988;28;20052;-82
2023/04/08 11:47:47;;;;;;;10.52;8.80;;;11.20;99.90;;;;;;5088649;28;20097;-82
2023/04/08 11:50:22;;;;;;;11.77;9.05;;;11.30;99.90;;;;;;5069961;28;20059;-82
2023/04/08 11:52:50;;;;;;;11.20;9.15;;;11.30;99.90;;;;;;5052844;28;20048;-82
2023/04/08 11:55:30;;;;;;;9.48;8.45;;;11.40;99.90;;;;;;5069487;28;20516;-83
2023/04/08 11:58:00;;;;;;;11.30;9.30;;;11.40;99.90;;;;;;5068999;28;20040;-82
2023/04/08 12:00:27;;;;;;;9.93;8.50;;;11.50;99.90;;;;;;5050287;28;20055;-82
2023/04/08 12:02:52;;;;;;;9.88;8.43;;;11.60;99.90;;;;;;5069486;28;20076;-81
2023/04/08 12:05:18;;;;;;;9.95;8.63;;;11.60;99.90;;;;;;5069786;28;20071;-81
2023/04/08 12:07:44;;;;;;;11.25;9.10;;;11.50;99.90;;;;;;5086116;28;20434;-81
2023/04/08 12:10:11;;;;;;;9.32;7.97;;;11.40;99.90;;;;;;5093887;28;20507;-81
2023/04/08 12:12:37;;;;;;;9.80;8.20;;;11.20;99.90;;;;;;5068962;28;20078;-81
2023/04/08 12:15:03;;;;;;;11.82;8.90;;;11.10;99.90;;;;;;5088510;28;20044;-81
2023/04/08 12:17:29;;;;;;;10.32;8.68;;;11.10;99.90;;;;;;5088246;28;20516;-81
2023/04/08 12:19:55;;;;;;;11.10;9.27;;;11.00;99.90;;;;;;5086851;28;20127;-80
2023/04/08 12:22:22;;;;;;;12.07;9.18;;;10.90;99.90;;;;;;5087344;28;20521;-81
2023/04/08 12:24:47;;;;;;;10.48;8.93;;;10.90;99.90;;;;;;5086659;28;20048;-81
2023/04/08 12:27:13;;;;;;;12.15;9.65;;;10.90;99.90;;;;;;5085661;28;20044;-82
2023/04/08 12:29:38;;;;;;;13.07;9.77;;;11.10;99.90;;;;;;5050161;28;20040;-82
2023/04/08 12:32:04;;;;;;;12.07;10.07;;;10.90;99.90;;;;;;5068705;28;20044;-83
2023/04/08 12:34:30;;;;;;;14.20;10.23;;;10.90;99.90;;;;;;5069236;28;20044;-83
2023/04/08 12:36:56;;;;;;;15.52;10.70;;;10.80;99.90;;;;;;5048413;28;20402;-83
2023/04/08 12:39:22;;;;;;;15.15;11.15;;;10.90;99.90;;;;;;5064486;28;20105;-83